createdAt,value
2018-09-17T00:02:48.317Z,100643.08
2018-09-17T00:07:51.650Z,100648.97
2018-09-17T00:12:54.994Z,100645.27
2018-09-17T00:17:58.334Z,100648.48
2018-09-17T00:23:01.659Z,100647.34
2018-09-17T00:28:05.001Z,100659.89
2018-09-17T00:33:08.303Z,100646.64
2018-09-17T00:38:11.743Z,100654.05
2018-09-17T00:43:15.071Z,100653.13
2018-09-17T00:48:18.383Z,100651.58
2018-09-17T00:53:21.706Z,100654.73
2018-09-17T00:58:25.090Z,100649.20
2018-09-17T01:03:28.443Z,100652.80
2018-09-17T01:08:31.779Z,100660.29
2018-09-17T01:13:35.126Z,100659.55
2018-09-17T01:18:38.488Z,100663.23
2018-09-17T01:23:41.815Z,100661.16
2018-09-17T01:28:45.186Z,100675.05
2018-09-17T01:33:48.520Z,100662.59
2018-09-17T01:38:51.835Z,100671.03
2018-09-17T01:43:55.151Z,100682.61
2018-09-17T01:48:58.487Z,100684.17
2018-09-17T01:54:01.811Z,100674.08
2018-09-17T01:59:05.150Z,100663.22
2018-09-17T02:04:08.502Z,100675.13
2018-09-17T02:09:11.890Z,100667.28
2018-09-17T02:14:15.187Z,100671.94
2018-09-17T02:19:18.515Z,100672.16
2018-09-17T02:24:21.837Z,100668.97
2018-09-17T02:29:25.224Z,100670.20
2018-09-17T02:34:28.567Z,100669.51
2018-09-17T02:39:31.931Z,100668.15
2018-09-17T02:44:35.257Z,100681.40
2018-09-17T02:49:38.582Z,100671.51
2018-09-17T02:54:41.914Z,100662.72
2018-09-17T02:59:45.267Z,100661.55
2018-09-17T03:04:48.622Z,100661.89
2018-09-17T03:09:51.966Z,100672.16
2018-09-17T03:14:55.282Z,100672.84
2018-09-17T03:19:58.619Z,100677.67
2018-09-17T03:25:01.994Z,100687.39
2018-09-17T03:30:05.522Z,100694.34
2018-09-17T03:35:08.855Z,100694.72
2018-09-17T03:40:12.229Z,100704.33
2018-09-17T03:45:15.563Z,100706.11
2018-09-17T03:50:18.890Z,100700.98
2018-09-17T03:55:22.206Z,100698.46
2018-09-17T04:00:25.535Z,100689.39
2018-09-17T04:05:28.868Z,100681.51
2018-09-17T04:10:32.235Z,100671.61
2018-09-17T04:15:35.561Z,100666.92
2018-09-17T04:20:38.887Z,100667.28
2018-09-17T04:25:42.202Z,100669.70
2018-09-17T04:30:45.519Z,100677.04
2018-09-17T04:35:48.875Z,100674.37
2018-09-17T04:40:52.207Z,100668.88
2018-09-17T04:45:55.515Z,100676.56
2018-09-17T04:50:58.997Z,100676.87
2018-09-17T04:56:02.346Z,100680.47
2018-09-17T05:01:05.740Z,100685.31
2018-09-17T05:06:09.099Z,100685.02
2018-09-17T05:11:13.209Z,100698.81
2018-09-17T05:16:16.577Z,100700.25
2018-09-17T05:21:19.930Z,100707.55
2018-09-17T05:26:23.255Z,100710.99
2018-09-17T05:31:26.586Z,100710.85
2018-09-17T05:36:29.907Z,100711.81
2018-09-17T05:41:33.232Z,100716.88
2018-09-17T05:46:36.555Z,100720.20
2018-09-17T05:51:39.867Z,100707.04
2018-09-17T05:56:43.195Z,100710.33
2018-09-17T06:01:46.519Z,100705.80
2018-09-17T06:06:49.891Z,100713.31
2018-09-17T06:11:53.235Z,100710.69
2018-09-17T06:16:56.546Z,100710.63
2018-09-17T06:21:59.868Z,100702.54
2018-09-17T06:27:03.227Z,100700.62
2018-09-17T06:32:06.523Z,100703.22
2018-09-17T06:37:09.835Z,100699.00
2018-09-17T06:42:13.283Z,100697.97
2018-09-17T06:47:16.600Z,100698.09
2018-09-17T06:52:19.890Z,100707.45
2018-09-17T06:57:23.236Z,100712.34
2018-09-17T07:02:26.524Z,100718.48
2018-09-17T07:07:29.878Z,100716.52
2018-09-17T07:12:33.195Z,100708.45
2018-09-17T07:17:36.474Z,100712.20
2018-09-17T07:22:39.780Z,100714.65
2018-09-17T07:27:43.090Z,100705.51
2018-09-17T07:32:46.392Z,100703.09
2018-09-17T07:37:49.726Z,100698.09
2018-09-17T07:42:53.085Z,100702.20
2018-09-17T07:47:56.467Z,100693.19
2018-09-17T07:52:59.819Z,100684.97
2018-09-17T07:58:03.111Z,100686.81
2018-09-17T08:03:06.718Z,100686.23
2018-09-17T08:08:10.052Z,100689.75
2018-09-17T08:13:13.386Z,100681.39
2018-09-17T08:18:16.687Z,100674.89
2018-09-17T08:23:20.009Z,100670.80
2018-09-17T08:28:23.379Z,100673.56
2018-09-17T08:33:26.703Z,100669.08
2018-09-17T08:38:30.016Z,100657.48
2018-09-17T08:43:33.344Z,100661.43
2018-09-17T08:48:36.674Z,100669.86
2018-09-17T08:53:39.979Z,100673.95
2018-09-17T08:58:48.574Z,100676.17
2018-09-17T09:03:57.339Z,100667.42
2018-09-17T09:09:00.630Z,100658.20
2018-09-17T09:14:08.504Z,100662.88
2018-09-17T09:19:11.798Z,100654.75
2018-09-17T09:24:15.139Z,100655.80
2018-09-17T09:29:18.474Z,100644.68
2018-09-17T09:34:21.771Z,100656.45
2018-09-17T09:39:25.133Z,100653.69
2018-09-17T09:44:28.426Z,100652.73
2018-09-17T09:49:31.777Z,100647.02
2018-09-17T09:54:35.144Z,100641.95
2018-09-17T09:59:38.513Z,100635.45
2018-09-17T10:04:41.834Z,100648.69
2018-09-17T10:09:50.481Z,100641.30
2018-09-17T10:14:58.987Z,100648.45
2018-09-17T10:20:02.334Z,100641.19
2018-09-17T10:25:05.679Z,100650.34
2018-09-17T10:30:08.996Z,100628.62
2018-09-17T10:35:12.314Z,100630.02
2018-09-17T10:40:15.762Z,100619.78
2018-09-17T10:45:19.102Z,100616.39
2018-09-17T10:50:22.444Z,100614.08
2018-09-17T10:55:25.755Z,100601.23
2018-09-17T11:00:29.059Z,100598.06
2018-09-17T11:05:33.419Z,100600.34
2018-09-17T11:10:36.847Z,100594.48
2018-09-17T11:15:46.298Z,100589.11
2018-09-17T11:20:49.618Z,100586.72
2018-09-17T11:25:52.966Z,100586.27
2018-09-17T11:30:56.307Z,100572.92
2018-09-17T11:35:59.622Z,100568.17
2018-09-17T11:41:02.976Z,100564.30
2018-09-17T11:46:06.303Z,100558.38
2018-09-17T11:51:09.647Z,100552.48
2018-09-17T11:56:12.975Z,100550.92
2018-09-17T12:01:21.667Z,100543.89
2018-09-17T12:06:30.190Z,100526.67
2018-09-17T12:11:33.539Z,100525.91
2018-09-17T12:16:36.869Z,100520.81
2018-09-17T12:21:40.155Z,100523.31
2018-09-17T12:26:43.476Z,100519.23
2018-09-17T12:31:46.813Z,100519.20
2018-09-17T12:36:50.130Z,100517.06
2018-09-17T12:41:53.510Z,100509.47
2018-09-17T12:46:56.859Z,100505.34
2018-09-17T12:52:00.236Z,100506.95
2018-09-17T12:57:03.612Z,100499.61
2018-09-17T13:02:07.048Z,100486.23
2018-09-17T13:07:10.407Z,100474.84
2018-09-17T13:12:13.743Z,100477.42
2018-09-17T13:17:17.080Z,100474.59
2018-09-17T13:22:20.403Z,100472.48
2018-09-17T13:27:23.790Z,100470.06
2018-09-17T13:32:27.310Z,100458.27
2018-09-17T13:37:30.646Z,100454.37
2018-09-17T13:42:34.023Z,100457.45
2018-09-17T13:47:37.423Z,100446.53
2018-09-17T13:52:40.765Z,100438.62
2018-09-17T13:57:44.135Z,100437.80
2018-09-17T14:02:47.480Z,100446.66
2018-09-17T14:07:50.903Z,100436.70
2018-09-17T14:12:54.244Z,100434.27
2018-09-17T14:17:57.609Z,100439.91
2018-09-17T14:23:00.959Z,100431.73
2018-09-17T14:28:04.322Z,100422.95
2018-09-17T14:33:13.032Z,100420.59
2018-09-17T14:38:16.383Z,100411.09
2018-09-17T14:43:19.800Z,100406.01
2018-09-17T14:48:23.351Z,100402.14
2018-09-17T14:53:26.746Z,100395.03
2018-09-17T14:58:30.135Z,100396.61
2018-09-17T15:03:33.516Z,100397.50
2018-09-17T15:08:37.084Z,100395.53
2018-09-17T15:13:41.559Z,100390.59
2018-09-17T15:18:44.930Z,100392.70
2018-09-17T15:23:48.448Z,100386.80
2018-09-17T15:28:51.859Z,100385.83
2018-09-17T15:33:55.249Z,100378.98
2018-09-17T15:38:58.577Z,100378.86
2018-09-17T15:44:02.023Z,100376.81
2018-09-17T15:49:05.543Z,100371.98
2018-09-17T15:54:08.915Z,100371.52
2018-09-17T15:59:12.424Z,100364.52
2018-09-17T16:04:15.760Z,100356.64
2018-09-17T16:09:19.103Z,100361.33
2018-09-17T16:14:22.628Z,100356.98
2018-09-17T16:19:26.111Z,100355.42
2018-09-17T16:24:29.475Z,100350.13
2018-09-17T16:29:33.009Z,100344.48
2018-09-17T16:34:36.384Z,100347.89
2018-09-17T16:39:39.687Z,100346.70
2018-09-17T16:44:43.012Z,100346.58
2018-09-17T16:49:46.358Z,100352.09
2018-09-17T16:54:49.760Z,100348.39
2018-09-17T16:59:53.190Z,100350.41
2018-09-17T17:04:56.596Z,100352.44
2018-09-17T17:09:59.823Z,100361.22
2018-09-17T17:15:03.160Z,100360.20
2018-09-17T17:20:07.143Z,100361.58
2018-09-17T17:25:10.569Z,100363.77
2018-09-17T17:30:13.961Z,100366.48
2018-09-17T17:35:17.492Z,100368.93
2018-09-17T17:40:20.968Z,100374.61
2018-09-17T17:45:24.260Z,100374.59
2018-09-17T17:50:27.560Z,100383.21
2018-09-17T17:55:30.950Z,100392.64
2018-09-17T18:00:34.375Z,100384.74
2018-09-17T18:05:37.662Z,100391.23
2018-09-17T18:10:42.031Z,100390.37
2018-09-17T18:15:45.425Z,100392.20
2018-09-17T18:20:49.535Z,100397.80
2018-09-17T18:25:52.756Z,100396.95
2018-09-17T18:30:56.042Z,100387.41
2018-09-17T18:35:59.455Z,100394.38
2018-09-17T18:41:02.836Z,100395.42
2018-09-17T18:46:06.201Z,100401.55
2018-09-17T18:51:09.785Z,100398.99
2018-09-17T18:56:13.091Z,100400.01
2018-09-17T19:01:16.455Z,100400.74
2018-09-17T19:06:19.854Z,100406.91
2018-09-17T19:11:23.277Z,100391.98
2018-09-17T19:16:31.998Z,100396.27
2018-09-17T19:21:40.714Z,100393.99
2018-09-17T19:26:43.943Z,100393.92
2018-09-17T19:31:48.480Z,100386.24
2018-09-17T19:36:52.028Z,100393.90
2018-09-17T19:41:55.981Z,100390.97
2018-09-17T19:46:59.439Z,100388.48
2018-09-17T19:52:08.166Z,100391.59
2018-09-17T19:57:17.017Z,100387.70
2018-09-17T20:02:20.878Z,100393.56
2018-09-17T20:07:24.395Z,100389.39
2018-09-17T20:12:27.742Z,100389.28
2018-09-17T20:17:31.083Z,100388.94
2018-09-17T20:22:34.376Z,100391.49
2018-09-17T20:27:37.667Z,100400.78
2018-09-17T20:32:40.998Z,100394.47
2018-09-17T20:37:44.347Z,100391.90
2018-09-17T20:42:47.679Z,100386.40
2018-09-17T20:47:51.014Z,100385.64
2018-09-17T20:52:54.318Z,100379.80
2018-09-17T20:57:57.614Z,100380.22
2018-09-17T21:03:01.109Z,100382.23
2018-09-17T21:08:04.465Z,100386.16
2018-09-17T21:13:08.018Z,100377.89
2018-09-17T21:18:11.225Z,100384.75
2018-09-17T21:23:14.607Z,100380.53
2018-09-17T21:28:17.921Z,100380.14
2018-09-17T21:33:21.255Z,100379.33
2018-09-17T21:38:24.563Z,100383.36
2018-09-17T21:43:27.855Z,100374.36
2018-09-17T21:48:31.223Z,100378.05
2018-09-17T21:53:34.519Z,100374.94
2018-09-17T21:58:37.898Z,100371.29
2018-09-17T22:03:41.252Z,100371.25
2018-09-17T22:08:44.559Z,100375.00
2018-09-17T22:13:47.946Z,100373.94
2018-09-17T22:18:51.293Z,100369.66
2018-09-17T22:23:54.632Z,100369.48
2018-09-17T22:28:58.098Z,100357.69
2018-09-17T22:34:01.442Z,100359.20
2018-09-17T22:39:07.410Z,100359.59
2018-09-17T22:44:10.718Z,100361.47
2018-09-17T22:49:14.094Z,100360.88
2018-09-17T22:54:17.402Z,100355.39
2018-09-17T22:59:20.711Z,100354.47
2018-09-17T23:04:24.042Z,100351.39
2018-09-17T23:09:27.351Z,100351.53
2018-09-17T23:14:30.691Z,100350.81
2018-09-17T23:19:34.099Z,100353.84
2018-09-17T23:24:37.393Z,100347.50
2018-09-17T23:29:40.678Z,100346.29
2018-09-17T23:34:44.046Z,100344.66
2018-09-17T23:39:47.377Z,100343.52
2018-09-17T23:44:50.750Z,100337.33
2018-09-17T23:49:54.063Z,100338.98
2018-09-17T23:54:57.554Z,100334.75
